Smokerun, Pennsylvania
Current Conditions -  °F | °C
As of 8:54 PM on Saturday 22 Nov 2014 (Local Time) from KFIG Reporting Station
Overcast Overcast  
Wind Chill: 33°   Ceiling: 7000
Heat Index: 33°   Visibility: 10mi
Dew Point: 32°   Wind: 3mph
Humidity: 96%   Direction: 180°S
Pressure: 30.11"   Gusts: NA
Location:  40.8°N, 78.43°W
Report Text: KFIG 230154Z AUTO 18003KT 10SM BKN070 OVC080 01/00 A3011 RMK AO2 UPB0059E00RAB00E37 SLP218 P0000 T00060000
Loading
Personal Weather Stations






























Interactive Weather Map New forecast layout! Learn more

10-Day Weather Forecast

Advertisements
Track Severe Weather on mobile